createdAt,value
2024-02-23T00:02:02.252Z,10.70
2024-02-23T00:04:29.193Z,11.10
2024-02-23T00:06:56.365Z,11.20
2024-02-23T00:09:23.317Z,11.30
2024-02-23T00:11:50.893Z,11.00
2024-02-23T00:14:21.489Z,11.60
2024-02-23T00:16:48.677Z,11.10
2024-02-23T00:19:17.960Z,11.10
2024-02-23T00:21:48.820Z,11.00
2024-02-23T00:24:17.397Z,11.30
2024-02-23T00:26:47.738Z,11.10
2024-02-23T00:29:14.632Z,11.40
2024-02-23T00:31:46.494Z,11.20
2024-02-23T00:34:16.229Z,11.10
2024-02-23T00:36:45.637Z,10.80
2024-02-23T00:39:14.836Z,11.30
2024-02-23T00:41:41.637Z,11.40
2024-02-23T00:44:08.519Z,11.30
2024-02-23T00:46:35.705Z,10.90
2024-02-23T00:49:03.464Z,10.50
2024-02-23T00:51:33.082Z,11.50
2024-02-23T00:54:02.449Z,11.00
2024-02-23T00:56:35.971Z,10.90
2024-02-23T00:59:08.161Z,11.40
2024-02-23T01:01:35.090Z,10.70
2024-02-23T01:04:02.023Z,10.70
2024-02-23T01:06:29.607Z,10.90
2024-02-23T01:08:59.174Z,10.90
2024-02-23T01:11:26.109Z,10.90
2024-02-23T01:13:53.140Z,10.70
2024-02-23T01:16:20.135Z,10.80
2024-02-23T01:18:47.046Z,10.90
2024-02-23T01:21:14.860Z,11.30
2024-02-23T01:23:41.695Z,11.10
2024-02-23T01:26:08.569Z,11.20
2024-02-23T01:28:35.685Z,11.30
2024-02-23T01:31:02.640Z,10.70
2024-02-23T01:33:29.653Z,11.20
2024-02-23T01:35:58.405Z,10.80
2024-02-23T01:38:26.213Z,10.70
2024-02-23T01:40:55.952Z,11.10
2024-02-23T01:43:22.791Z,10.80
2024-02-23T01:45:49.926Z,10.70
2024-02-23T01:48:17.749Z,10.70
2024-02-23T01:50:45.550Z,10.60
2024-02-23T01:53:16.565Z,10.30
2024-02-23T01:55:46.547Z,10.60
2024-02-23T01:58:13.567Z,10.60
2024-02-23T02:00:44.966Z,10.90
2024-02-23T02:03:13.281Z,10.30
2024-02-23T02:05:40.764Z,10.30
2024-02-23T02:08:08.308Z,10.40
2024-02-23T02:10:35.243Z,10.50
2024-02-23T02:13:06.810Z,11.00
2024-02-23T02:15:35.539Z,10.50
2024-02-23T02:18:02.467Z,10.80
2024-02-23T02:20:33.858Z,10.40
2024-02-23T02:23:04.190Z,10.40
2024-02-23T02:25:31.055Z,10.50
2024-02-23T02:27:57.861Z,10.80
2024-02-23T02:30:24.649Z,10.50
2024-02-23T02:32:51.605Z,10.60
2024-02-23T02:35:18.625Z,10.00
2024-02-23T02:37:45.553Z,10.20
2024-02-23T02:40:12.584Z,10.20
2024-02-23T02:42:39.355Z,10.20
2024-02-23T02:45:06.638Z,10.80
2024-02-23T02:47:33.559Z,10.20
2024-02-23T02:50:00.705Z,10.10
2024-02-23T02:52:28.077Z,10.20
2024-02-23T02:54:55.228Z,10.50
2024-02-23T02:57:22.338Z,10.70
2024-02-23T02:59:51.302Z,10.10
2024-02-23T03:02:18.347Z,10.20
2024-02-23T03:04:52.002Z,9.90
2024-02-23T03:07:21.070Z,10.10
2024-02-23T03:09:48.011Z,10.10
2024-02-23T03:12:15.072Z,11.00
2024-02-23T03:14:42.334Z,10.00
2024-02-23T03:17:12.661Z,10.10
2024-02-23T03:19:39.911Z,9.90
2024-02-23T03:22:07.001Z,10.30
2024-02-23T03:24:34.229Z,10.00
2024-02-23T03:27:01.471Z,10.20
2024-02-23T03:29:30.538Z,10.40
2024-02-23T03:31:57.721Z,9.80
2024-02-23T03:34:24.825Z,10.00
2024-02-23T03:36:53.984Z,9.90
2024-02-23T03:39:20.841Z,9.90
2024-02-23T03:41:47.732Z,9.90
2024-02-23T03:44:14.686Z,9.80
2024-02-23T03:46:41.838Z,10.10
2024-02-23T03:49:08.898Z,9.60
2024-02-23T03:51:40.155Z,9.80
2024-02-23T03:54:07.913Z,9.90
2024-02-23T03:56:43.752Z,9.80
2024-02-23T03:59:11.189Z,10.00
2024-02-23T04:01:40.205Z,9.90
2024-02-23T04:04:08.050Z,9.80
2024-02-23T04:06:36.127Z,9.90
2024-02-23T04:09:06.129Z,10.00
2024-02-23T04:11:34.144Z,10.00
2024-02-23T04:14:01.941Z,9.60
2024-02-23T04:16:29.377Z,9.40
2024-02-23T04:18:57.335Z,9.50
2024-02-23T04:21:25.048Z,9.70
2024-02-23T04:23:56.542Z,9.70
2024-02-23T04:26:23.826Z,9.70
2024-02-23T04:28:50.901Z,9.90
2024-02-23T04:31:17.948Z,9.60
2024-02-23T04:33:44.830Z,9.50
2024-02-23T04:36:11.705Z,8.90
2024-02-23T04:38:39.464Z,10.10
2024-02-23T04:41:06.566Z,9.60
2024-02-23T04:43:33.749Z,9.60
2024-02-23T04:46:00.534Z,9.70
2024-02-23T04:48:32.145Z,9.50
2024-02-23T04:50:59.352Z,9.40
2024-02-23T04:53:26.254Z,9.60
2024-02-23T04:55:53.245Z,9.60
2024-02-23T04:58:21.754Z,9.40
2024-02-23T05:00:48.830Z,9.50
2024-02-23T05:03:17.188Z,9.50
2024-02-23T05:05:44.063Z,10.20
2024-02-23T05:08:11.049Z,9.50
2024-02-23T05:10:38.044Z,9.60
2024-02-23T05:13:05.216Z,9.50
2024-02-23T05:15:32.060Z,9.50
2024-02-23T05:17:58.921Z,9.70
2024-02-23T05:20:25.803Z,9.50
2024-02-23T05:22:52.695Z,9.70
2024-02-23T05:25:19.514Z,9.50
2024-02-23T05:27:46.339Z,9.20
2024-02-23T05:30:14.248Z,9.50
2024-02-23T05:32:43.263Z,9.60
2024-02-23T05:35:10.668Z,9.60
2024-02-23T05:37:40.673Z,9.50
2024-02-23T05:40:11.376Z,9.60
2024-02-23T05:42:39.885Z,9.30
2024-02-23T05:45:10.268Z,9.70
2024-02-23T05:47:39.428Z,9.50
2024-02-23T05:50:07.760Z,9.90
2024-02-23T05:52:35.138Z,9.50
2024-02-23T05:55:02.439Z,9.50
2024-02-23T05:57:35.023Z,9.50
2024-02-23T06:00:02.015Z,9.50
2024-02-23T06:06:15.595Z,10.00
2024-02-23T06:08:45.163Z,9.40
2024-02-23T06:11:12.153Z,8.60
2024-02-23T06:13:43.729Z,9.50
2024-02-23T06:16:14.488Z,9.80
2024-02-23T06:18:42.288Z,9.30
2024-02-23T06:21:16.239Z,8.80
2024-02-23T06:23:43.450Z,9.40
2024-02-23T06:26:11.102Z,9.40
2024-02-23T06:28:39.829Z,9.50
2024-02-23T06:31:07.794Z,9.30
2024-02-23T06:33:35.038Z,9.40
2024-02-23T06:36:05.438Z,9.30
2024-02-23T06:38:32.437Z,9.00
2024-02-23T06:41:01.748Z,9.20
2024-02-23T06:43:28.717Z,9.20
2024-02-23T06:45:55.520Z,9.20
2024-02-23T06:48:22.501Z,9.20
2024-02-23T06:50:49.466Z,9.50
2024-02-23T06:53:16.381Z,9.00
2024-02-23T06:55:43.200Z,9.00
2024-02-23T06:58:11.590Z,9.10
2024-02-23T07:00:39.454Z,9.10
2024-02-23T07:03:06.485Z,9.00
2024-02-23T07:05:36.803Z,9.10
2024-02-23T07:08:06.755Z,8.80
2024-02-23T07:10:43.779Z,9.00
2024-02-23T07:13:11.129Z,9.00
2024-02-23T07:15:40.075Z,9.00
2024-02-23T07:18:09.581Z,9.50
2024-02-23T07:20:38.019Z,9.10
2024-02-23T07:23:08.742Z,9.10
2024-02-23T07:25:35.578Z,9.20
2024-02-23T07:28:02.395Z,9.30
2024-02-23T07:30:29.214Z,8.50
2024-02-23T07:32:56.225Z,9.20
2024-02-23T07:35:23.221Z,9.20
2024-02-23T07:37:50.090Z,9.30
2024-02-23T07:40:19.294Z,9.70
2024-02-23T07:42:48.266Z,9.30
2024-02-23T07:45:15.173Z,9.40
2024-02-23T07:47:42.143Z,9.30
2024-02-23T07:50:09.925Z,9.50
2024-02-23T07:52:37.629Z,9.50
2024-02-23T07:55:06.608Z,9.90
2024-02-23T07:57:34.168Z,9.60
2024-02-23T08:00:01.426Z,9.60
2024-02-23T08:02:28.489Z,9.60
2024-02-23T08:04:55.657Z,9.40
2024-02-23T08:07:24.060Z,9.70
2024-02-23T08:09:50.929Z,9.70
2024-02-23T08:12:17.860Z,9.80
2024-02-23T08:14:46.529Z,9.80
2024-02-23T08:17:13.835Z,10.10
2024-02-23T08:19:40.812Z,9.70
2024-02-23T08:22:07.768Z,9.90
2024-02-23T08:24:34.649Z,10.00
2024-02-23T08:27:01.773Z,10.00
2024-02-23T08:29:31.712Z,10.40
2024-02-23T08:31:58.789Z,10.20
2024-02-23T08:34:30.846Z,10.10
2024-02-23T08:36:59.848Z,10.40
2024-02-23T08:39:31.338Z,10.50
2024-02-23T08:41:58.276Z,10.30
2024-02-23T08:44:25.768Z,10.40
2024-02-23T08:46:55.924Z,10.10
2024-02-23T08:49:23.058Z,10.30
2024-02-23T08:51:50.035Z,10.60
2024-02-23T08:54:20.034Z,10.70
2024-02-23T08:56:46.985Z,11.30
2024-02-23T08:59:14.061Z,10.90
2024-02-23T09:01:40.987Z,10.70
2024-02-23T09:04:07.971Z,10.70
2024-02-23T09:06:39.556Z,10.80
2024-02-23T09:09:10.824Z,10.80
2024-02-23T09:11:40.065Z,11.30
2024-02-23T09:14:10.075Z,11.10
2024-02-23T09:16:38.464Z,11.40
2024-02-23T09:19:05.554Z,11.30
2024-02-23T09:21:35.038Z,11.00
2024-02-23T09:24:03.290Z,11.90
2024-02-23T09:26:32.773Z,11.20
2024-02-23T09:28:59.785Z,11.30
2024-02-23T09:31:29.246Z,11.40
2024-02-23T09:33:57.535Z,11.60
2024-02-23T09:36:24.978Z,11.90
2024-02-23T09:38:54.514Z,11.30
2024-02-23T09:41:29.423Z,11.60
2024-02-23T09:44:03.391Z,11.40
2024-02-23T09:46:31.934Z,12.30
2024-02-23T09:49:19.666Z,11.90
2024-02-23T09:51:53.146Z,11.70
2024-02-23T09:54:20.787Z,12.10
2024-02-23T09:56:52.288Z,11.80
2024-02-23T09:59:25.199Z,12.20
2024-02-23T10:02:11.775Z,11.90
2024-02-23T10:04:59.919Z,11.70
2024-02-23T10:07:29.363Z,11.50
2024-02-23T10:10:04.724Z,11.80
2024-02-23T10:12:37.311Z,12.30
2024-02-23T10:15:10.447Z,12.10
2024-02-23T10:17:52.434Z,11.70
2024-02-23T10:20:19.424Z,11.70
2024-02-23T10:22:46.915Z,11.90
2024-02-23T10:25:13.935Z,11.70
2024-02-23T10:27:43.986Z,11.90
2024-02-23T10:30:17.347Z,12.30
2024-02-23T10:32:46.626Z,12.00
2024-02-23T10:35:18.216Z,12.20
2024-02-23T10:37:49.917Z,12.10
2024-02-23T10:40:26.463Z,12.20
2024-02-23T10:43:09.939Z,12.70
2024-02-23T10:45:40.989Z,11.60
2024-02-23T10:48:14.865Z,12.30
2024-02-23T10:50:52.360Z,12.30
2024-02-23T10:53:28.177Z,12.70
2024-02-23T10:56:11.263Z,12.40
2024-02-23T11:12:11.661Z,12.50
2024-02-23T11:14:45.354Z,12.40
2024-02-23T11:17:23.297Z,12.60
2024-02-23T11:20:10.840Z,12.20
2024-02-23T11:22:46.625Z,12.50
2024-02-23T11:26:09.614Z,12.50
2024-02-23T11:28:55.591Z,12.50
2024-02-23T11:31:32.767Z,12.50
2024-02-23T11:34:00.013Z,12.40
2024-02-23T11:36:33.716Z,12.40
2024-02-23T11:39:02.081Z,12.80
2024-02-23T11:41:30.223Z,12.60
2024-02-23T11:43:59.363Z,12.30
2024-02-23T11:46:35.124Z,12.30
2024-02-23T11:49:02.207Z,12.80
2024-02-23T11:51:30.566Z,12.60
2024-02-23T11:53:59.752Z,12.40
2024-02-23T11:56:27.974Z,12.50
2024-02-23T11:58:59.133Z,12.30
2024-02-23T12:01:26.056Z,12.60
2024-02-23T12:03:52.943Z,12.40
2024-02-23T12:06:19.974Z,12.70
2024-02-23T12:08:47.754Z,12.70
2024-02-23T12:11:15.934Z,12.70
2024-02-23T12:13:43.671Z,13.20
2024-02-23T12:16:10.792Z,12.60
2024-02-23T12:18:38.254Z,12.60
2024-02-23T12:21:10.496Z,12.70
2024-02-23T12:23:45.879Z,12.60
2024-02-23T12:26:18.814Z,12.70
2024-02-23T12:28:46.841Z,12.90
2024-02-23T12:31:14.210Z,13.10
2024-02-23T12:33:42.297Z,12.80
2024-02-23T12:36:11.708Z,12.20
2024-02-23T12:38:38.945Z,12.20
2024-02-23T12:41:06.276Z,12.20
2024-02-23T12:43:33.620Z,12.70
2024-02-23T12:46:02.477Z,12.30
2024-02-23T12:48:29.385Z,12.30
2024-02-23T12:50:56.603Z,12.60
2024-02-23T12:53:37.453Z,12.50
2024-02-23T12:56:12.938Z,12.50
2024-02-23T12:58:45.445Z,12.60
2024-02-23T13:01:15.003Z,13.00
2024-02-23T13:03:44.825Z,13.30
2024-02-23T13:06:13.410Z,13.50
2024-02-23T13:08:43.781Z,12.70
2024-02-23T13:14:18.022Z,13.30
2024-02-23T13:16:48.155Z,13.70
2024-02-23T13:19:17.463Z,13.60
2024-02-23T13:21:55.191Z,13.80
2024-02-23T13:24:25.528Z,13.90
2024-02-23T13:26:52.641Z,14.10
2024-02-23T13:29:22.739Z,14.50
2024-02-23T13:31:57.292Z,14.10
2024-02-23T13:34:28.871Z,14.10
2024-02-23T13:37:33.006Z,14.40
2024-02-23T13:40:11.254Z,14.10
2024-02-23T13:42:44.588Z,14.50
2024-02-23T13:45:18.304Z,14.60
2024-02-23T13:48:06.703Z,14.40
2024-02-23T13:50:54.706Z,14.60
2024-02-23T13:53:29.084Z,14.60
2024-02-23T13:56:33.800Z,15.30
2024-02-23T13:59:03.726Z,14.80
2024-02-23T14:02:12.748Z,15.20
2024-02-23T14:07:52.174Z,15.40
2024-02-23T14:10:55.587Z,15.40
2024-02-23T14:13:49.955Z,15.40
2024-02-23T14:16:28.309Z,15.20
2024-02-23T14:19:05.355Z,14.70
2024-02-23T14:24:36.841Z,15.20
2024-02-23T14:27:44.449Z,14.60
2024-02-23T14:30:30.933Z,15.00
2024-02-23T14:33:17.923Z,14.50
2024-02-23T14:36:34.122Z,14.60
2024-02-23T14:39:23.963Z,14.50
2024-02-23T14:42:37.259Z,14.50
2024-02-23T14:48:21.174Z,15.10
2024-02-23T14:51:23.517Z,15.10
2024-02-23T14:59:52.651Z,13.70
2024-02-23T15:03:46.192Z,15.10
2024-02-23T15:06:34.002Z,15.00
2024-02-23T15:09:24.413Z,15.10
2024-02-23T15:12:24.940Z,15.30
2024-02-23T15:16:03.738Z,15.30
2024-02-23T15:28:30.517Z,15.40
2024-02-23T15:31:10.328Z,15.70
2024-02-23T15:33:46.789Z,15.50
2024-02-23T15:36:57.645Z,15.10
2024-02-23T15:39:44.994Z,15.00
2024-02-23T15:42:20.789Z,15.10
2024-02-23T15:44:56.055Z,15.50
2024-02-23T15:47:43.894Z,14.90
2024-02-23T15:50:35.153Z,14.90
2024-02-23T15:53:20.548Z,14.70
2024-02-23T15:55:57.561Z,14.80
2024-02-23T15:58:36.185Z,15.00
2024-02-23T16:01:07.952Z,14.80
2024-02-23T16:03:36.962Z,14.40
2024-02-23T16:06:06.757Z,14.40
2024-02-23T16:09:00.548Z,14.60
2024-02-23T16:11:36.336Z,14.40
2024-02-23T16:14:12.506Z,14.40
2024-02-23T16:16:42.623Z,14.30
2024-02-23T16:19:14.181Z,14.60
2024-02-23T16:21:47.025Z,14.50
2024-02-23T16:24:28.813Z,13.30
2024-02-23T16:26:58.787Z,14.20
2024-02-23T16:29:28.253Z,13.60
2024-02-23T16:31:55.129Z,14.10
2024-02-23T16:34:25.514Z,13.80
2024-02-23T16:37:00.873Z,14.00
2024-02-23T16:39:30.177Z,13.80
2024-02-23T16:42:08.909Z,14.10
2024-02-23T16:44:37.254Z,13.70
2024-02-23T16:47:07.147Z,13.90
2024-02-23T16:49:39.006Z,13.50
2024-02-23T16:52:07.519Z,13.50
2024-02-23T16:54:34.478Z,13.40
2024-02-23T16:57:01.506Z,13.70
2024-02-23T16:59:28.575Z,13.50
2024-02-23T17:01:57.181Z,13.20
2024-02-23T17:04:26.780Z,13.40
2024-02-23T17:06:53.977Z,13.20
2024-02-23T17:09:28.422Z,13.30
2024-02-23T17:11:55.473Z,13.00
2024-02-23T17:14:22.999Z,13.30
2024-02-23T17:17:10.337Z,13.30
2024-02-23T17:19:43.542Z,12.90
2024-02-23T17:22:35.778Z,13.20
2024-02-23T17:25:19.424Z,13.00
2024-02-23T17:27:55.348Z,12.80
2024-02-23T17:30:28.084Z,12.80
2024-02-23T17:33:14.700Z,12.70
2024-02-23T17:35:54.441Z,12.80
2024-02-23T17:38:36.768Z,12.40
2024-02-23T17:41:28.090Z,12.60
2024-02-23T17:44:00.909Z,12.50
2024-02-23T17:46:33.483Z,12.80
2024-02-23T17:52:05.365Z,12.60
2024-02-23T17:55:45.173Z,12.20
2024-02-23T17:58:26.446Z,12.20
2024-02-23T18:01:21.771Z,12.10
2024-02-23T18:03:55.388Z,12.40
2024-02-23T18:06:54.633Z,12.00
2024-02-23T18:09:27.131Z,12.00
2024-02-23T18:11:54.321Z,12.10
2024-02-23T18:14:21.404Z,11.90
2024-02-23T18:16:52.098Z,11.80
2024-02-23T18:19:21.834Z,12.10
2024-02-23T18:21:51.189Z,11.70
2024-02-23T18:24:21.167Z,11.90
2024-02-23T18:26:48.062Z,11.60
2024-02-23T18:29:15.184Z,11.70
2024-02-23T18:31:42.225Z,11.60
2024-02-23T18:34:11.673Z,11.40
2024-02-23T18:36:38.758Z,11.60
2024-02-23T18:39:07.030Z,11.00
2024-02-23T18:41:34.323Z,11.20
2024-02-23T18:44:07.430Z,11.10
2024-02-23T18:46:37.762Z,11.10
2024-02-23T18:49:11.479Z,10.80
2024-02-23T18:51:46.138Z,11.00
2024-02-23T18:54:14.011Z,11.10
2024-02-23T18:56:59.607Z,10.80
2024-02-23T18:59:31.776Z,10.80
2024-02-23T19:02:11.099Z,11.30
2024-02-23T19:04:48.074Z,10.80
2024-02-23T19:07:27.685Z,10.50
2024-02-23T19:09:56.853Z,10.70
2024-02-23T19:12:23.992Z,10.70
2024-02-23T19:14:51.099Z,10.80
2024-02-23T19:17:18.152Z,10.60
2024-02-23T19:19:50.235Z,10.40
2024-02-23T19:22:17.955Z,11.20
2024-02-23T19:25:01.180Z,10.50
2024-02-23T19:27:58.952Z,10.40
2024-02-23T19:30:49.311Z,10.40
2024-02-23T19:33:26.277Z,10.50
2024-02-23T19:35:55.933Z,10.50
2024-02-23T19:38:23.119Z,11.00
2024-02-23T19:40:53.086Z,10.70
2024-02-23T19:43:20.315Z,10.60
2024-02-23T19:45:50.828Z,10.10
2024-02-23T19:48:21.512Z,10.50
2024-02-23T19:50:48.692Z,10.20
2024-02-23T19:53:16.133Z,10.60
2024-02-23T19:55:47.392Z,10.60
2024-02-23T19:58:14.494Z,10.30
2024-02-23T20:00:41.484Z,10.40
2024-02-23T20:03:08.389Z,10.30
2024-02-23T20:05:35.750Z,10.20
2024-02-23T20:08:02.795Z,10.20
2024-02-23T20:10:29.916Z,10.60
2024-02-23T20:12:59.930Z,10.60
2024-02-23T20:15:29.065Z,10.20
2024-02-23T20:17:57.452Z,10.30
2024-02-23T20:20:24.948Z,10.20
2024-02-23T20:22:57.764Z,10.50
2024-02-23T20:25:32.050Z,10.40
2024-02-23T20:28:02.732Z,10.30
2024-02-23T20:30:47.345Z,10.50
2024-02-23T20:33:15.668Z,10.30
2024-02-23T20:36:16.052Z,10.20
2024-02-23T20:38:57.956Z,10.20
2024-02-23T20:41:43.709Z,10.20
2024-02-23T20:47:39.858Z,10.30
2024-02-23T20:54:05.103Z,10.10
2024-02-23T20:56:37.322Z,9.60
2024-02-23T21:02:42.236Z,10.10
2024-02-23T21:05:26.348Z,9.70
2024-02-23T21:08:06.142Z,10.20
2024-02-23T21:10:57.093Z,9.50
2024-02-23T21:14:02.122Z,9.50
2024-02-23T21:16:41.628Z,9.50
2024-02-23T21:19:11.498Z,9.50
2024-02-23T21:21:44.464Z,9.50
2024-02-23T21:24:19.842Z,9.50
2024-02-23T21:27:04.630Z,10.30
2024-02-23T21:29:47.856Z,10.20
2024-02-23T21:32:52.941Z,9.90
2024-02-23T21:39:14.112Z,9.90
2024-02-23T21:42:29.374Z,9.80
2024-02-23T21:45:27.008Z,9.80
2024-02-23T21:48:40.893Z,9.90
2024-02-23T21:51:26.375Z,10.10
2024-02-23T21:54:09.913Z,10.00
2024-02-23T21:56:46.088Z,10.10
2024-02-23T22:02:40.358Z,10.10
2024-02-23T22:05:49.643Z,10.10
2024-02-23T22:08:52.388Z,10.10
2024-02-23T22:11:52.216Z,10.80
2024-02-23T22:14:37.333Z,10.20
2024-02-23T22:17:44.581Z,9.90
2024-02-23T22:20:39.560Z,10.10
2024-02-23T22:23:36.119Z,10.10
2024-02-23T22:26:23.351Z,9.90
2024-02-23T22:29:30.659Z,10.40
2024-02-23T22:32:30.516Z,10.30
2024-02-23T22:35:24.883Z,10.10
2024-02-23T22:38:25.118Z,10.10
2024-02-23T22:41:11.288Z,10.10
2024-02-23T22:43:55.182Z,10.10
2024-02-23T22:46:58.419Z,9.90
2024-02-23T22:49:33.469Z,10.50
2024-02-23T22:52:08.915Z,10.20
2024-02-23T22:54:49.217Z,10.00
2024-02-23T22:57:32.783Z,10.10
2024-02-23T23:07:01.625Z,10.00
2024-02-23T23:09:38.800Z,10.00
2024-02-23T23:14:57.381Z,10.00
2024-02-23T23:17:26.747Z,9.80
2024-02-23T23:19:57.821Z,10.00
2024-02-23T23:22:26.967Z,10.00
2024-02-23T23:25:00.335Z,10.00
2024-02-23T23:27:36.134Z,9.90
2024-02-23T23:30:03.511Z,9.70
2024-02-23T23:32:36.039Z,9.80
2024-02-23T23:35:03.337Z,9.90
2024-02-23T23:37:30.308Z,9.60
2024-02-23T23:40:02.435Z,9.80
2024-02-23T23:45:22.793Z,9.80
2024-02-23T23:48:04.719Z,9.80
2024-02-23T23:50:31.833Z,9.70
2024-02-23T23:53:02.748Z,9.60
2024-02-23T23:55:29.867Z,10.00
2024-02-23T23:58:10.850Z,9.90
